Map

Track Data

SID SEASON NUMBER BASIN SUBBASIN NAME ISO_TIME NATURE LAT LON WMO_WIND WMO_PRES WMO_AGENCY TRACK_TYPE DIST2LAND LANDFALL IFLAG USA_AGENCY USA_ATCF_ID USA_LAT USA_LON USA_RECORD USA_STATUS USA_WIND USA_PRES USA_SSHS USA_R34_NE USA_R34_SE USA_R34_SW USA_R34_NW USA_R50_NE USA_R50_SE USA_R50_SW USA_R50_NW USA_R64_NE USA_R64_SE USA_R64_SW USA_R64_NW USA_POCI USA_ROCI USA_RMW USA_EYE TOKYO_LAT TOKYO_LON TOKYO_GRADE TOKYO_WIND TOKYO_PRES TOKYO_R50_DIR TOKYO_R50_LONG TOKYO_R50_SHORT TOKYO_R30_DIR TOKYO_R30_LONG TOKYO_R30_SHORT TOKYO_LAND CMA_LAT CMA_LON CMA_CAT CMA_WIND CMA_PRES HKO_LAT HKO_LON HKO_CAT HKO_WIND HKO_PRES NEWDELHI_LAT NEWDELHI_LON NEWDELHI_GRADE NEWDELHI_WIND NEWDELHI_PRES NEWDELHI_CI NEWDELHI_DP NEWDELHI_POCI REUNION_LAT REUNION_LON REUNION_TYPE REUNION_WIND REUNION_PRES REUNION_TNUM REUNION_CI REUNION_RMW REUNION_R34_NE REUNION_R34_SE REUNION_R34_SW REUNION_R34_NW REUNION_R50_NE REUNION_R50_SE REUNION_R50_SW REUNION_R50_NW REUNION_R64_NE REUNION_R64_SE REUNION_R64_SW REUNION_R64_NW BOM_LAT BOM_LON BOM_TYPE BOM_WIND BOM_PRES BOM_TNUM BOM_CI BOM_RMW BOM_R34_NE BOM_R34_SE BOM_R34_SW BOM_R34_NW BOM_R50_NE BOM_R50_SE BOM_R50_SW BOM_R50_NW BOM_R64_NE BOM_R64_SE BOM_R64_SW BOM_R64_NW BOM_ROCI BOM_POCI BOM_EYE BOM_POS_METHOD BOM_PRES_METHOD NADI_LAT NADI_LON NADI_CAT NADI_WIND NADI_PRES WELLINGTON_LAT WELLINGTON_LON WELLINGTON_WIND WELLINGTON_PRES DS824_LAT DS824_LON DS824_STAGE DS824_WIND DS824_PRES TD9636_LAT TD9636_LON TD9636_STAGE TD9636_WIND TD9636_PRES TD9635_LAT TD9635_LON TD9635_WIND TD9635_PRES TD9635_ROCI NEUMANN_LAT NEUMANN_LON NEUMANN_CLASS NEUMANN_WIND NEUMANN_PRES MLC_LAT MLC_LON MLC_CLASS MLC_WIND MLC_PRES USA_GUST BOM_GUST BOM_GUST_PER REUNION_GUST REUNION_GUST_PER USA_SEAHGT USA_SEARAD_NE USA_SEARAD_SE USA_SEARAD_SW USA_SEARAD_NW STORM_SPEED STORM_DIR
1854259N24266 1854 12 NA GM NOT_NAMED 1854-09-16 06:00:00 TS 24.4000 -94.3000 main 321 303 _____________O -1 24.4000 -94.3000 TS 35 5 327
1854259N24266 1854 12 NA GM NOT_NAMED 1854-09-16 09:00:00 TS 24.5875 -94.4375 main 303 276 _____________P -1 24.5875 -94.4375 TS 40 5 326
1854259N24266 1854 12 NA GM NOT_NAMED 1854-09-16 12:00:00 TS 24.8000 -94.6000 main 276 250 _____________O -1 24.8000 -94.6000 TS 45 6 325
1854259N24266 1854 12 NA GM NOT_NAMED 1854-09-16 15:00:00 TS 25.0500 -94.7999 main 247 223 _____________P -1 25.0500 -94.7999 TS 50 6 324
1854259N24266 1854 12 NA GM NOT_NAMED 1854-09-16 18:00:00 TS 25.3000 -95.0000 main 223 207 _____________O -1 25.3000 -95.0000 TS 55 6 325
1854259N24266 1854 12 NA GM NOT_NAMED 1854-09-16 21:00:00 TS 25.4999 -95.1502 main 198 183 _____________P -1 25.4999 -95.1502 TS 55 5 326
1854259N24266 1854 12 NA GM NOT_NAMED 1854-09-17 00:00:00 TS 25.7000 -95.3000 main 183 160 _____________O -1 25.7000 -95.3000 TS 55 6 325
1854259N24266 1854 12 NA GM NOT_NAMED 1854-09-17 03:00:00 TS 25.9500 -95.4999 main 159 140 _____________P -1 25.9500 -95.4999 TS 62 6 324
1854259N24266 1854 12 NA GM NOT_NAMED 1854-09-17 06:00:00 TS 26.2000 -95.7000 main 141 133 _____________O -1 26.2000 -95.7000 HU 70 6 325
1854259N24266 1854 12 NA GM NOT_NAMED 1854-09-17 09:00:00 TS 26.4000 -95.8577 main 127 123 _____________P -1 26.4000 -95.8577 HU 77 5 326
1854259N24266 1854 12 NA GM NOT_NAMED 1854-09-17 12:00:00 TS 26.6000 -96.0000 main 128 121 _____________O -1 26.6000 -96.0000 HU 85 5 328
1854259N24266 1854 12 NA GM NOT_NAMED 1854-09-17 15:00:00 TS 26.8425 -96.1649 main 121 108 _____________P -1 26.8425 -96.1649 HU 90 6 332
1854259N24266 1854 12 NA GM NOT_NAMED 1854-09-17 18:00:00 TS 27.1000 -96.3000 main 108 91 _____________O -1 27.1000 -96.3000 HU 95 5 339
1854259N24266 1854 12 NA GM NOT_NAMED 1854-09-17 21:00:00 TS 27.3275 -96.3800 main 91 91 _____________P -1 27.3275 -96.3800 HU 97 10 47
1854259N24266 1854 12 NA GM NOT_NAMED 1854-09-18 00:00:00 TS 27.8000 -95.4667 90 hurdat_atl main 101 91 O____________O hurdat_atl AL041854 28.2000 -93.6000 HU 90 2 27.6000 -96.4000 MH 100 14 54
1854259N24266 1854 12 NA GM NOT_NAMED 1854-09-18 03:00:00 TS 28.1462 -95.1261 main 93 68 P____________P AL041854 28.3001 -93.8499 HU 90 2 27.9924 -96.4023 MH 105 7 36
1854259N24266 1854 12 NA GM NOT_NAMED 1854-09-18 06:00:00 TS 28.4000 -94.9800 90 hurdat_atl main 68 53 O____________O hurdat_atl AL041854 28.4000 -94.1000 HU 90 2 28.4000 -96.3000 MH 110 5 24
1854259N24266 1854 12 NA GM NOT_NAMED 1854-09-18 09:00:00 TS 28.5742 -94.9076 main 53 38 P____________P AL041854 28.5000 -94.3501 HU 90 2 28.7227 -96.0228 MH 97 3 1
1854259N24266 1854 12 NA GM NOT_NAMED 1854-09-18 12:00:00 TS 28.7333 -94.9667 90 hurdat_atl main 38 14 O____________O hurdat_atl AL041854 28.6000 -94.6000 HU 90 2 29.0000 -95.7000 HU 85 3 335
1854259N24266 1854 12 NA GM NOT_NAMED 1854-09-18 15:00:00 TS 28.8858 -95.0684 main 14 0 P____________P AL041854 28.7000 -94.8602 HU 90 2 29.2574 -95.4847 HU 75 3 330
1854259N24266 1854 12 NA GM NOT_NAMED 1854-09-18 18:00:00 TS 29.0333 -95.1667 90 hurdat_atl main 0 0 O____________O hurdat_atl AL041854 28.8000 -95.1000 HU 90 2 29.5000 -95.3000 HU 65 3 331
1854259N24266 1854 12 NA NA NOT_NAMED 1854-09-18 21:00:00 TS 29.1782 -95.2481 90 hurdat_atl main 0 0 O____________P hurdat_atl AL041854 28.9000 -95.3000 L HU 90 2 29.7347 -95.1444 HU 62 3 330
1854259N24266 1854 12 NA NA NOT_NAMED 1854-09-19 00:00:00 TS 29.3333 -95.3667 80 hurdat_atl main 0 0 O____________O hurdat_atl AL041854 29.0000 -95.6000 HU 80 1 30.0000 -94.9000 TS 60 4 342
1854259N24266 1854 12 NA NA NOT_NAMED 1854-09-19 03:00:00 TS 29.5294 -95.3735 main 0 0 P____________P AL041854 29.1000 -95.8671 HU 75 1 30.3882 -94.3863 TS 55 4 2
1854259N24266 1854 12 NA NA NOT_NAMED 1854-09-19 06:00:00 TS 29.7000 -95.3667 70 hurdat_atl main 0 0 O____________O hurdat_atl AL041854 29.2000 -96.1000 HU 70 1 30.7000 -93.9000 TS 50 3 342
1854259N24266 1854 12 NA NA NOT_NAMED 1854-09-19 09:00:00 TS 29.7816 -95.4665 main 0 0 P____________P AL041854 29.2925 -96.3300 HU 65 1 30.7596 -93.7394 TS 42 2 308
1854259N24266 1854 12 NA NA NOT_NAMED 1854-09-19 12:00:00 TS 29.8333 -95.5667 60 hurdat_atl main 0 0 O____________O hurdat_atl AL041854 29.4000 -96.5000 TS 60 0 30.7000 -93.7000 TS 35 2 319
1854259N24266 1854 12 NA NA NOT_NAMED 1854-09-19 15:00:00 TS 29.9116 -95.5966 main 0 0 P____________P AL041854 29.5424 -96.5950 TS 60 0 30.6500 -93.6000 TS 32 2 7
1854259N24266 1854 12 NA NA NOT_NAMED 1854-09-19 18:00:00 TS 30.0000 -95.5667 60 hurdat_atl main 0 0 O____________O hurdat_atl AL041854 29.7000 -96.6000 TS 60 0 30.6000 -93.5000 TD 30 2 25
1854259N24266 1854 12 NA NA NOT_NAMED 1854-09-19 21:00:00 TS 30.0975 -95.4942 main 0 0 P____________P AL041854 29.8500 -96.5375 TS 55 0 30.5925 -93.4075 TD 30 4 56
1854259N24266 1854 12 NA NA NOT_NAMED 1854-09-20 00:00:00 TS 30.2400 -95.1600 50 hurdat_atl main 0 0 O____________O hurdat_atl AL041854 30.0000 -96.4000 TS 50 0 30.6000 -93.3000 TD 30 8 68
1854259N24266 1854 12 NA NA NOT_NAMED 1854-09-20 03:00:00 TS 30.3751 -94.6813 main 0 0 P____________P AL041854 30.1501 -96.2126 TS 45 0 30.6000 -93.1500 TD 30 10 75
1854259N24266 1854 12 NA NA NOT_NAMED 1854-09-20 06:00:00 TS 30.5000 -94.0000 40 hurdat_atl main 0 0 O____________O hurdat_atl AL041854 30.3000 -96.0000 TS 40 0 30.6000 -93.0000 TD 30 16 82
1854259N24266 1854 12 NA NA NOT_NAMED 1854-09-20 09:00:00 TS 30.6000 -92.8925 main 0 0 _____________P AL041854 TS -1 30.6000 -92.8925 TD 30 10 84
1854259N24266 1854 12 NA NA NOT_NAMED 1854-09-20 12:00:00 TS 30.6000 -92.8000 main 0 0 _____________O -1 30.6000 -92.8000 TD 30 2 90
1854259N24266 1854 12 NA NA NOT_NAMED 1854-09-20 15:00:00 TS 30.6000 -92.7000 main 0 0 _____________P -1 30.6000 -92.7000 TD 30 2 90
1854259N24266 1854 12 NA NA NOT_NAMED 1854-09-20 18:00:00 TS 30.6000 -92.6000 main 0 0 _____________O -1 30.6000 -92.6000 TD 30 2 90
1854259N24266 1854 12 NA NA NOT_NAMED 1854-09-20 21:00:00 TS 30.6000 -92.5000 main 0 0 _____________P -1 30.6000 -92.5000 TD 30 2 90
1854259N24266 1854 12 NA NA NOT_NAMED 1854-09-21 00:00:00 TS 30.6000 -92.4000 main 0 0 _____________O -1 30.6000 -92.4000 TD 30 2 90
1854259N24266 1854 12 NA NA NOT_NAMED 1854-09-21 03:00:00 TS 30.6000 -92.3000 main 0 0 _____________P -1 30.6000 -92.3000 TD 30 2 90
1854259N24266 1854 12 NA NA NOT_NAMED 1854-09-21 06:00:00 TS 30.6000 -92.2000 main 0 0 _____________O -1 30.6000 -92.2000 TD 30 2 90
1854259N24266 1854 12 NA NA NOT_NAMED 1854-09-21 09:00:00 TS 30.6000 -92.1000 main 0 0 _____________P -1 30.6000 -92.1000 TD 30 2 90
1854259N24266 1854 12 NA NA NOT_NAMED 1854-09-21 12:00:00 TS 30.6000 -92.0000 main 0 _____________O -1 30.6000 -92.0000 TD 30 2 90

About IBTrACS Database

This database is a web-friendly format of International Best Track Archive for Climate Stewardship (IBTrACS), a global best track data archive curated by NOAA dating back to 1842.

Updated: 2021-11-26